sensor_id;sensor_type;location;lat;lon;timestamp;temperature;humidity
5172;DHT22;2605;49.770;9.868;2022-07-23T00:00:06;21.90;99.90
5172;DHT22;2605;49.770;9.868;2022-07-23T00:02:31;21.80;99.90
5172;DHT22;2605;49.770;9.868;2022-07-23T00:04:57;21.80;99.90
5172;DHT22;2605;49.770;9.868;2022-07-23T00:07:22;21.80;99.90
5172;DHT22;2605;49.770;9.868;2022-07-23T00:09:48;21.80;99.90
5172;DHT22;2605;49.770;9.868;2022-07-23T00:12:13;21.70;99.90
5172;DHT22;2605;49.770;9.868;2022-07-23T00:14:39;21.60;99.90
5172;DHT22;2605;49.770;9.868;2022-07-23T00:17:04;21.50;99.90
5172;DHT22;2605;49.770;9.868;2022-07-23T00:19:30;21.40;99.90
5172;DHT22;2605;49.770;9.868;2022-07-23T00:21:55;21.30;99.90
5172;DHT22;2605;49.770;9.868;2022-07-23T00:24:21;21.20;99.90
5172;DHT22;2605;49.770;9.868;2022-07-23T00:26:46;21.20;99.90
5172;DHT22;2605;49.770;9.868;2022-07-23T00:29:12;21.10;99.90
5172;DHT22;2605;49.770;9.868;2022-07-23T00:31:37;21.10;99.90
5172;DHT22;2605;49.770;9.868;2022-07-23T00:34:03;21.00;99.90
5172;DHT22;2605;49.770;9.868;2022-07-23T00:36:29;21.00;99.90
5172;DHT22;2605;49.770;9.868;2022-07-23T00:38:56;21.00;99.90
5172;DHT22;2605;49.770;9.868;2022-07-23T00:41:22;20.90;99.90
5172;DHT22;2605;49.770;9.868;2022-07-23T00:43:48;21.00;99.90
5172;DHT22;2605;49.770;9.868;2022-07-23T00:46:18;21.00;99.90
5172;DHT22;2605;49.770;9.868;2022-07-23T00:48:43;21.00;99.90
5172;DHT22;2605;49.770;9.868;2022-07-23T00:51:09;21.00;99.90
5172;DHT22;2605;49.770;9.868;2022-07-23T00:53:35;21.00;99.90
5172;DHT22;2605;49.770;9.868;2022-07-23T00:56:00;21.00;99.90
5172;DHT22;2605;49.770;9.868;2022-07-23T00:58:26;20.90;99.90
5172;DHT22;2605;49.770;9.868;2022-07-23T01:00:52;20.90;99.90
5172;DHT22;2605;49.770;9.868;2022-07-23T01:03:18;20.80;99.90
5172;DHT22;2605;49.770;9.868;2022-07-23T01:05:44;20.80;99.90
5172;DHT22;2605;49.770;9.868;2022-07-23T01:08:10;20.80;99.90
5172;DHT22;2605;49.770;9.868;2022-07-23T01:10:36;20.80;99.90
5172;DHT22;2605;49.770;9.868;2022-07-23T01:13:06;20.70;99.90
5172;DHT22;2605;49.770;9.868;2022-07-23T01:15:35;20.70;99.90
5172;DHT22;2605;49.770;9.868;2022-07-23T01:18:02;20.70;99.90
5172;DHT22;2605;49.770;9.868;2022-07-23T01:20:28;20.70;99.90
5172;DHT22;2605;49.770;9.868;2022-07-23T01:22:54;20.70;99.90
5172;DHT22;2605;49.770;9.868;2022-07-23T01:25:20;20.50;99.90
5172;DHT22;2605;49.770;9.868;2022-07-23T01:27:46;20.50;99.90
5172;DHT22;2605;49.770;9.868;2022-07-23T01:30:13;20.50;99.90
5172;DHT22;2605;49.770;9.868;2022-07-23T01:32:38;20.50;99.90
5172;DHT22;2605;49.770;9.868;2022-07-23T01:35:04;20.60;99.90
5172;DHT22;2605;49.770;9.868;2022-07-23T01:37:30;20.70;99.90
5172;DHT22;2605;49.770;9.868;2022-07-23T01:39:56;20.60;99.90
5172;DHT22;2605;49.770;9.868;2022-07-23T01:42:21;20.50;99.90
5172;DHT22;2605;49.770;9.868;2022-07-23T01:44:47;20.40;99.90
5172;DHT22;2605;49.770;9.868;2022-07-23T01:47:12;20.40;99.90
5172;DHT22;2605;49.770;9.868;2022-07-23T01:49:38;20.40;99.90
5172;DHT22;2605;49.770;9.868;2022-07-23T01:52:04;20.40;99.90
5172;DHT22;2605;49.770;9.868;2022-07-23T01:54:33;20.50;99.90
5172;DHT22;2605;49.770;9.868;2022-07-23T01:56:59;20.50;99.90
5172;DHT22;2605;49.770;9.868;2022-07-23T01:59:27;20.50;99.90
5172;DHT22;2605;49.770;9.868;2022-07-23T02:01:52;20.60;99.90
5172;DHT22;2605;49.770;9.868;2022-07-23T02:04:21;20.60;99.90
5172;DHT22;2605;49.770;9.868;2022-07-23T02:06:47;20.60;99.90
5172;DHT22;2605;49.770;9.868;2022-07-23T02:09:13;20.60;99.90
5172;DHT22;2605;49.770;9.868;2022-07-23T02:11:39;20.60;99.90
5172;DHT22;2605;49.770;9.868;2022-07-23T02:14:04;20.60;99.90
5172;DHT22;2605;49.770;9.868;2022-07-23T02:16:30;20.50;99.90
5172;DHT22;2605;49.770;9.868;2022-07-23T02:18:55;20.50;99.90
5172;DHT22;2605;49.770;9.868;2022-07-23T02:21:21;20.50;99.90
5172;DHT22;2605;49.770;9.868;2022-07-23T02:23:46;20.50;99.90
5172;DHT22;2605;49.770;9.868;2022-07-23T02:26:12;20.40;99.90
5172;DHT22;2605;49.770;9.868;2022-07-23T02:28:37;20.40;99.90
5172;DHT22;2605;49.770;9.868;2022-07-23T02:31:03;20.30;99.90
5172;DHT22;2605;49.770;9.868;2022-07-23T02:33:29;20.30;99.90
5172;DHT22;2605;49.770;9.868;2022-07-23T02:35:54;20.20;99.90
5172;DHT22;2605;49.770;9.868;2022-07-23T02:38:20;20.20;99.90
5172;DHT22;2605;49.770;9.868;2022-07-23T02:40:45;20.10;99.90
5172;DHT22;2605;49.770;9.868;2022-07-23T02:43:11;20.10;99.90
5172;DHT22;2605;49.770;9.868;2022-07-23T02:45:36;20.00;99.90
5172;DHT22;2605;49.770;9.868;2022-07-23T02:48:02;20.00;99.90
5172;DHT22;2605;49.770;9.868;2022-07-23T02:50:28;19.90;99.90
5172;DHT22;2605;49.770;9.868;2022-07-23T02:52:53;19.90;99.90
5172;DHT22;2605;49.770;9.868;2022-07-23T02:55:19;19.90;99.90
5172;DHT22;2605;49.770;9.868;2022-07-23T02:57:44;19.80;99.90
5172;DHT22;2605;49.770;9.868;2022-07-23T03:00:10;19.80;99.90
5172;DHT22;2605;49.770;9.868;2022-07-23T03:02:36;19.70;99.90
5172;DHT22;2605;49.770;9.868;2022-07-23T03:05:02;19.70;99.90
5172;DHT22;2605;49.770;9.868;2022-07-23T03:07:27;19.70;99.90
5172;DHT22;2605;49.770;9.868;2022-07-23T03:09:53;19.70;99.90
5172;DHT22;2605;49.770;9.868;2022-07-23T03:12:18;19.70;99.90
5172;DHT22;2605;49.770;9.868;2022-07-23T03:14:44;19.70;99.90
5172;DHT22;2605;49.770;9.868;2022-07-23T03:17:09;19.80;99.90
5172;DHT22;2605;49.770;9.868;2022-07-23T03:19:35;19.80;99.90
5172;DHT22;2605;49.770;9.868;2022-07-23T03:22:02;19.80;99.90
5172;DHT22;2605;49.770;9.868;2022-07-23T03:24:28;19.80;99.90
5172;DHT22;2605;49.770;9.868;2022-07-23T03:27:14;19.80;99.90
5172;DHT22;2605;49.770;9.868;2022-07-23T03:29:40;19.90;99.90
5172;DHT22;2605;49.770;9.868;2022-07-23T03:32:05;19.90;99.90
5172;DHT22;2605;49.770;9.868;2022-07-23T03:34:31;19.90;99.90
5172;DHT22;2605;49.770;9.868;2022-07-23T03:36:56;19.80;99.90
5172;DHT22;2605;49.770;9.868;2022-07-23T03:39:22;19.60;99.90
5172;DHT22;2605;49.770;9.868;2022-07-23T03:41:47;19.60;99.90
5172;DHT22;2605;49.770;9.868;2022-07-23T03:44:13;19.60;99.90
5172;DHT22;2605;49.770;9.868;2022-07-23T03:46:38;19.60;99.90
5172;DHT22;2605;49.770;9.868;2022-07-23T03:49:04;19.50;99.90
5172;DHT22;2605;49.770;9.868;2022-07-23T03:51:29;19.40;99.90
5172;DHT22;2605;49.770;9.868;2022-07-23T03:53:54;19.30;99.90
5172;DHT22;2605;49.770;9.868;2022-07-23T03:56:21;19.20;99.90
5172;DHT22;2605;49.770;9.868;2022-07-23T03:58:47;19.20;99.90
5172;DHT22;2605;49.770;9.868;2022-07-23T04:01:13;19.20;99.90
5172;DHT22;2605;49.770;9.868;2022-07-23T04:03:38;19.10;99.90
5172;DHT22;2605;49.770;9.868;2022-07-23T04:06:05;19.20;99.90
5172;DHT22;2605;49.770;9.868;2022-07-23T04:08:30;19.20;99.90
5172;DHT22;2605;49.770;9.868;2022-07-23T04:10:56;19.20;99.90
5172;DHT22;2605;49.770;9.868;2022-07-23T04:13:21;19.10;99.90
5172;DHT22;2605;49.770;9.868;2022-07-23T04:15:47;19.00;99.90
5172;DHT22;2605;49.770;9.868;2022-07-23T04:18:13;19.00;99.90
5172;DHT22;2605;49.770;9.868;2022-07-23T04:20:38;18.80;99.90
5172;DHT22;2605;49.770;9.868;2022-07-23T04:23:04;18.70;99.90
5172;DHT22;2605;49.770;9.868;2022-07-23T04:25:29;18.50;99.90
5172;DHT22;2605;49.770;9.868;2022-07-23T04:27:55;18.40;99.90
5172;DHT22;2605;49.770;9.868;2022-07-23T04:30:20;18.30;99.90
5172;DHT22;2605;49.770;9.868;2022-07-23T04:32:46;18.30;99.90
5172;DHT22;2605;49.770;9.868;2022-07-23T04:35:11;18.30;99.90
5172;DHT22;2605;49.770;9.868;2022-07-23T04:37:37;18.30;99.90
5172;DHT22;2605;49.770;9.868;2022-07-23T04:40:03;18.40;99.90
5172;DHT22;2605;49.770;9.868;2022-07-23T04:42:28;18.30;99.90
5172;DHT22;2605;49.770;9.868;2022-07-23T04:44:54;18.40;99.90
5172;DHT22;2605;49.770;9.868;2022-07-23T04:47:19;18.30;99.90
5172;DHT22;2605;49.770;9.868;2022-07-23T04:49:45;18.50;99.90
5172;DHT22;2605;49.770;9.868;2022-07-23T04:52:10;18.30;99.90
5172;DHT22;2605;49.770;9.868;2022-07-23T04:54:36;18.40;99.90
5172;DHT22;2605;49.770;9.868;2022-07-23T04:57:01;18.50;99.90
5172;DHT22;2605;49.770;9.868;2022-07-23T04:59:27;18.50;99.90
5172;DHT22;2605;49.770;9.868;2022-07-23T05:01:52;18.60;99.90
5172;DHT22;2605;49.770;9.868;2022-07-23T05:04:18;18.70;99.90
5172;DHT22;2605;49.770;9.868;2022-07-23T05:06:43;18.70;99.90
5172;DHT22;2605;49.770;9.868;2022-07-23T05:09:09;18.80;99.90
5172;DHT22;2605;49.770;9.868;2022-07-23T05:11:34;18.90;99.90
5172;DHT22;2605;49.770;9.868;2022-07-23T05:14:00;19.00;99.90
5172;DHT22;2605;49.770;9.868;2022-07-23T05:16:25;19.20;99.90
5172;DHT22;2605;49.770;9.868;2022-07-23T05:18:51;19.30;99.90
5172;DHT22;2605;49.770;9.868;2022-07-23T05:21:16;19.30;99.90
5172;DHT22;2605;49.770;9.868;2022-07-23T05:23:42;19.40;99.90
5172;DHT22;2605;49.770;9.868;2022-07-23T05:26:07;19.50;99.90
5172;DHT22;2605;49.770;9.868;2022-07-23T05:28:33;19.60;99.90
5172;DHT22;2605;49.770;9.868;2022-07-23T05:30:58;19.70;99.90
5172;DHT22;2605;49.770;9.868;2022-07-23T05:33:24;19.70;99.90
5172;DHT22;2605;49.770;9.868;2022-07-23T05:35:49;19.70;99.90
5172;DHT22;2605;49.770;9.868;2022-07-23T05:38:15;19.80;99.90
5172;DHT22;2605;49.770;9.868;2022-07-23T05:40:40;19.70;99.90
5172;DHT22;2605;49.770;9.868;2022-07-23T05:43:06;19.70;99.90
5172;DHT22;2605;49.770;9.868;2022-07-23T05:45:31;19.70;99.90
5172;DHT22;2605;49.770;9.868;2022-07-23T05:47:57;19.60;99.90
5172;DHT22;2605;49.770;9.868;2022-07-23T05:50:22;19.50;99.90
5172;DHT22;2605;49.770;9.868;2022-07-23T05:52:48;19.40;99.90
5172;DHT22;2605;49.770;9.868;2022-07-23T05:55:13;19.40;99.90
5172;DHT22;2605;49.770;9.868;2022-07-23T05:57:40;19.40;99.90
5172;DHT22;2605;49.770;9.868;2022-07-23T06:00:08;19.30;99.90
5172;DHT22;2605;49.770;9.868;2022-07-23T06:02:34;19.20;99.90
5172;DHT22;2605;49.770;9.868;2022-07-23T06:04:59;18.90;99.90
5172;DHT22;2605;49.770;9.868;2022-07-23T06:07:25;18.80;99.90
5172;DHT22;2605;49.770;9.868;2022-07-23T06:09:50;18.60;99.90
5172;DHT22;2605;49.770;9.868;2022-07-23T06:12:16;18.60;99.90
5172;DHT22;2605;49.770;9.868;2022-07-23T06:14:42;18.60;99.90
5172;DHT22;2605;49.770;9.868;2022-07-23T06:17:08;18.70;99.90
5172;DHT22;2605;49.770;9.868;2022-07-23T06:19:33;18.80;99.90
5172;DHT22;2605;49.770;9.868;2022-07-23T06:21:59;18.90;99.90
5172;DHT22;2605;49.770;9.868;2022-07-23T06:24:24;18.90;99.90
5172;DHT22;2605;49.770;9.868;2022-07-23T06:26:50;19.00;99.90
5172;DHT22;2605;49.770;9.868;2022-07-23T06:29:15;18.90;99.90
5172;DHT22;2605;49.770;9.868;2022-07-23T06:31:41;18.90;99.90
5172;DHT22;2605;49.770;9.868;2022-07-23T06:34:06;18.80;99.90
5172;DHT22;2605;49.770;9.868;2022-07-23T06:36:32;18.90;99.90
5172;DHT22;2605;49.770;9.868;2022-07-23T06:38:57;18.80;99.90
5172;DHT22;2605;49.770;9.868;2022-07-23T06:41:23;18.80;99.90
5172;DHT22;2605;49.770;9.868;2022-07-23T06:43:49;18.70;99.90
5172;DHT22;2605;49.770;9.868;2022-07-23T06:46:15;18.60;99.90
5172;DHT22;2605;49.770;9.868;2022-07-23T06:48:40;18.60;99.90
5172;DHT22;2605;49.770;9.868;2022-07-23T06:51:06;18.50;99.90
5172;DHT22;2605;49.770;9.868;2022-07-23T06:53:31;18.40;99.90
5172;DHT22;2605;49.770;9.868;2022-07-23T06:55:57;18.30;99.90
5172;DHT22;2605;49.770;9.868;2022-07-23T06:58:22;18.20;99.90
5172;DHT22;2605;49.770;9.868;2022-07-23T07:00:48;18.20;99.90
5172;DHT22;2605;49.770;9.868;2022-07-23T07:03:13;18.10;99.90
5172;DHT22;2605;49.770;9.868;2022-07-23T07:05:39;18.10;99.90
5172;DHT22;2605;49.770;9.868;2022-07-23T07:08:07;18.00;99.90
5172;DHT22;2605;49.770;9.868;2022-07-23T07:10:33;18.00;99.90
5172;DHT22;2605;49.770;9.868;2022-07-23T07:12:58;18.10;99.90
5172;DHT22;2605;49.770;9.868;2022-07-23T07:15:24;18.10;99.90
5172;DHT22;2605;49.770;9.868;2022-07-23T07:17:49;18.20;99.90
5172;DHT22;2605;49.770;9.868;2022-07-23T07:20:15;18.20;99.90
5172;DHT22;2605;49.770;9.868;2022-07-23T07:22:40;18.20;99.90
5172;DHT22;2605;49.770;9.868;2022-07-23T07:25:06;18.40;99.90
5172;DHT22;2605;49.770;9.868;2022-07-23T07:27:32;18.30;99.90
5172;DHT22;2605;49.770;9.868;2022-07-23T07:29:57;18.50;99.90
5172;DHT22;2605;49.770;9.868;2022-07-23T07:32:23;18.60;99.90
5172;DHT22;2605;49.770;9.868;2022-07-23T07:34:49;18.70;99.90
5172;DHT22;2605;49.770;9.868;2022-07-23T07:37:15;18.90;99.90
5172;DHT22;2605;49.770;9.868;2022-07-23T07:39:40;19.30;99.90
5172;DHT22;2605;49.770;9.868;2022-07-23T07:42:06;19.40;99.90
5172;DHT22;2605;49.770;9.868;2022-07-23T07:44:31;19.70;99.90
5172;DHT22;2605;49.770;9.868;2022-07-23T07:46:57;19.70;99.90
5172;DHT22;2605;49.770;9.868;2022-07-23T07:49:22;19.60;99.90
5172;DHT22;2605;49.770;9.868;2022-07-23T07:51:49;19.50;99.90
5172;DHT22;2605;49.770;9.868;2022-07-23T07:54:14;19.60;99.90
5172;DHT22;2605;49.770;9.868;2022-07-23T07:56:40;19.50;99.90
5172;DHT22;2605;49.770;9.868;2022-07-23T07:59:06;19.80;99.90
5172;DHT22;2605;49.770;9.868;2022-07-23T08:01:31;20.00;99.90
5172;DHT22;2605;49.770;9.868;2022-07-23T08:03:57;20.10;99.90
5172;DHT22;2605;49.770;9.868;2022-07-23T08:06:22;20.20;99.90
5172;DHT22;2605;49.770;9.868;2022-07-23T08:08:48;20.10;99.90
5172;DHT22;2605;49.770;9.868;2022-07-23T08:11:14;20.20;99.90
5172;DHT22;2605;49.770;9.868;2022-07-23T08:13:39;20.40;99.90
5172;DHT22;2605;49.770;9.868;2022-07-23T08:16:05;20.50;99.90
5172;DHT22;2605;49.770;9.868;2022-07-23T08:18:30;20.40;99.90
5172;DHT22;2605;49.770;9.868;2022-07-23T08:20:56;20.50;99.90
5172;DHT22;2605;49.770;9.868;2022-07-23T08:23:21;20.60;99.90
5172;DHT22;2605;49.770;9.868;2022-07-23T08:25:47;20.80;99.90
5172;DHT22;2605;49.770;9.868;2022-07-23T08:28:14;21.00;99.90
5172;DHT22;2605;49.770;9.868;2022-07-23T08:30:41;21.20;99.90
5172;DHT22;2605;49.770;9.868;2022-07-23T08:33:09;21.40;99.90
5172;DHT22;2605;49.770;9.868;2022-07-23T08:35:47;21.50;99.90
5172;DHT22;2605;49.770;9.868;2022-07-23T08:38:16;21.60;99.90
5172;DHT22;2605;49.770;9.868;2022-07-23T08:40:45;21.70;99.90
5172;DHT22;2605;49.770;9.868;2022-07-23T08:43:13;21.70;99.90
5172;DHT22;2605;49.770;9.868;2022-07-23T08:45:42;21.70;99.90
5172;DHT22;2605;49.770;9.868;2022-07-23T08:48:11;21.70;99.90
5172;DHT22;2605;49.770;9.868;2022-07-23T08:50:37;21.50;99.90
5172;DHT22;2605;49.770;9.868;2022-07-23T08:53:06;21.60;99.90
5172;DHT22;2605;49.770;9.868;2022-07-23T08:55:32;21.80;99.90
5172;DHT22;2605;49.770;9.868;2022-07-23T08:57:57;21.90;99.90
5172;DHT22;2605;49.770;9.868;2022-07-23T09:00:23;21.80;99.90
5172;DHT22;2605;49.770;9.868;2022-07-23T09:02:49;21.70;99.90
5172;DHT22;2605;49.770;9.868;2022-07-23T09:05:16;21.50;99.90
5172;DHT22;2605;49.770;9.868;2022-07-23T09:08:13;21.60;99.90
5172;DHT22;2605;49.770;9.868;2022-07-23T09:10:44;21.50;99.90
5172;DHT22;2605;49.770;9.868;2022-07-23T09:13:31;21.40;99.90
5172;DHT22;2605;49.770;9.868;2022-07-23T09:16:08;21.40;99.90
5172;DHT22;2605;49.770;9.868;2022-07-23T09:18:44;21.40;99.90
5172;DHT22;2605;49.770;9.868;2022-07-23T09:23:49;21.60;99.90
5172;DHT22;2605;49.770;9.868;2022-07-23T09:31:48;21.70;99.90
5172;DHT22;2605;49.770;9.868;2022-07-23T09:36:48;21.80;99.90
5172;DHT22;2605;49.770;9.868;2022-07-23T09:39:16;21.90;99.90
5172;DHT22;2605;49.770;9.868;2022-07-23T09:41:45;21.90;99.90
5172;DHT22;2605;49.770;9.868;2022-07-23T09:44:17;21.70;99.90
5172;DHT22;2605;49.770;9.868;2022-07-23T09:46:45;21.80;99.90
5172;DHT22;2605;49.770;9.868;2022-07-23T09:49:29;22.20;99.90
5172;DHT22;2605;49.770;9.868;2022-07-23T09:51:57;22.30;99.90
5172;DHT22;2605;49.770;9.868;2022-07-23T09:57:01;22.70;99.90
5172;DHT22;2605;49.770;9.868;2022-07-23T09:59:31;23.00;99.90
5172;DHT22;2605;49.770;9.868;2022-07-23T10:01:57;23.50;99.90
5172;DHT22;2605;49.770;9.868;2022-07-23T10:04:25;23.80;99.90
5172;DHT22;2605;49.770;9.868;2022-07-23T10:06:54;23.70;99.90
5172;DHT22;2605;49.770;9.868;2022-07-23T10:09:40;24.10;99.90
5172;DHT22;2605;49.770;9.868;2022-07-23T10:12:12;24.30;99.90
5172;DHT22;2605;49.770;9.868;2022-07-23T10:14:57;24.50;99.90
5172;DHT22;2605;49.770;9.868;2022-07-23T10:17:23;24.50;99.90
5172;DHT22;2605;49.770;9.868;2022-07-23T10:19:49;24.40;99.90
5172;DHT22;2605;49.770;9.868;2022-07-23T10:22:20;24.70;99.90
5172;DHT22;2605;49.770;9.868;2022-07-23T10:25:10;25.20;99.90
5172;DHT22;2605;49.770;9.868;2022-07-23T10:28:02;25.10;99.90
5172;DHT22;2605;49.770;9.868;2022-07-23T10:36:09;25.00;99.90
5172;DHT22;2605;49.770;9.868;2022-07-23T10:41:09;25.20;99.90
5172;DHT22;2605;49.770;9.868;2022-07-23T10:43:35;25.20;99.90
5172;DHT22;2605;49.770;9.868;2022-07-23T10:46:24;25.30;99.90
5172;DHT22;2605;49.770;9.868;2022-07-23T10:49:25;25.10;99.90
5172;DHT22;2605;49.770;9.868;2022-07-23T10:54:38;25.40;99.90
5172;DHT22;2605;49.770;9.868;2022-07-23T10:57:05;25.70;99.90
5172;DHT22;2605;49.770;9.868;2022-07-23T11:02:38;25.80;99.90
5172;DHT22;2605;49.770;9.868;2022-07-23T11:05:09;26.00;99.90
5172;DHT22;2605;49.770;9.868;2022-07-23T11:07:37;26.10;99.90
5172;DHT22;2605;49.770;9.868;2022-07-23T11:10:36;26.40;99.90
5172;DHT22;2605;49.770;9.868;2022-07-23T11:26:44;26.50;99.90
5172;DHT22;2605;49.770;9.868;2022-07-23T11:34:40;26.10;99.90
5172;DHT22;2605;49.770;9.868;2022-07-23T11:37:11;26.20;99.90
5172;DHT22;2605;49.770;9.868;2022-07-23T11:39:38;26.30;99.90
5172;DHT22;2605;49.770;9.868;2022-07-23T11:42:05;26.20;99.90
5172;DHT22;2605;49.770;9.868;2022-07-23T11:44:36;26.10;99.90
5172;DHT22;2605;49.770;9.868;2022-07-23T11:47:03;25.80;99.90
5172;DHT22;2605;49.770;9.868;2022-07-23T11:49:29;26.00;99.90
5172;DHT22;2605;49.770;9.868;2022-07-23T11:52:14;26.40;99.90
5172;DHT22;2605;49.770;9.868;2022-07-23T11:54:59;26.70;99.90
5172;DHT22;2605;49.770;9.868;2022-07-23T11:57:45;27.40;99.90
5172;DHT22;2605;49.770;9.868;2022-07-23T12:00:19;27.80;99.90
5172;DHT22;2605;49.770;9.868;2022-07-23T12:02:49;27.50;99.90
5172;DHT22;2605;49.770;9.868;2022-07-23T12:05:20;27.30;99.90
5172;DHT22;2605;49.770;9.868;2022-07-23T12:07:48;27.10;99.90
5172;DHT22;2605;49.770;9.868;2022-07-23T12:12:49;26.60;99.90
5172;DHT22;2605;49.770;9.868;2022-07-23T12:15:18;26.50;99.90
5172;DHT22;2605;49.770;9.868;2022-07-23T12:17:46;26.70;99.90
5172;DHT22;2605;49.770;9.868;2022-07-23T12:20:14;26.80;99.90
5172;DHT22;2605;49.770;9.868;2022-07-23T12:22:45;26.70;99.90
5172;DHT22;2605;49.770;9.868;2022-07-23T12:25:22;27.00;99.90
5172;DHT22;2605;49.770;9.868;2022-07-23T12:30:48;27.10;99.90
5172;DHT22;2605;49.770;9.868;2022-07-23T12:33:27;27.40;99.90
5172;DHT22;2605;49.770;9.868;2022-07-23T12:35:55;27.70;99.90
5172;DHT22;2605;49.770;9.868;2022-07-23T12:38:22;27.90;99.90
5172;DHT22;2605;49.770;9.868;2022-07-23T12:40:57;27.90;99.90
5172;DHT22;2605;49.770;9.868;2022-07-23T12:43:31;28.10;99.90
5172;DHT22;2605;49.770;9.868;2022-07-23T12:46:14;28.00;99.90
5172;DHT22;2605;49.770;9.868;2022-07-23T12:48:52;28.00;99.90
5172;DHT22;2605;49.770;9.868;2022-07-23T12:54:07;28.00;99.90
5172;DHT22;2605;49.770;9.868;2022-07-23T12:56:33;27.90;99.90
5172;DHT22;2605;49.770;9.868;2022-07-23T13:01:32;27.80;99.90
5172;DHT22;2605;49.770;9.868;2022-07-23T13:07:02;27.50;99.90
5172;DHT22;2605;49.770;9.868;2022-07-23T13:09:30;27.60;99.90
5172;DHT22;2605;49.770;9.868;2022-07-23T13:11:56;27.30;99.90
5172;DHT22;2605;49.770;9.868;2022-07-23T13:14:23;27.30;99.90
5172;DHT22;2605;49.770;9.868;2022-07-23T13:16:50;27.50;99.90
5172;DHT22;2605;49.770;9.868;2022-07-23T13:19:16;27.40;99.90
5172;DHT22;2605;49.770;9.868;2022-07-23T13:21:42;27.60;99.90
5172;DHT22;2605;49.770;9.868;2022-07-23T13:24:09;27.70;99.90
5172;DHT22;2605;49.770;9.868;2022-07-23T13:26:35;27.80;99.90
5172;DHT22;2605;49.770;9.868;2022-07-23T13:29:01;27.60;99.90
5172;DHT22;2605;49.770;9.868;2022-07-23T13:31:27;27.80;99.90
5172;DHT22;2605;49.770;9.868;2022-07-23T13:33:52;27.70;99.90
5172;DHT22;2605;49.770;9.868;2022-07-23T13:36:18;28.00;99.90
5172;DHT22;2605;49.770;9.868;2022-07-23T13:38:43;28.00;99.90
5172;DHT22;2605;49.770;9.868;2022-07-23T13:41:09;27.50;99.90
5172;DHT22;2605;49.770;9.868;2022-07-23T13:43:34;27.70;99.90
5172;DHT22;2605;49.770;9.868;2022-07-23T13:46:00;27.50;99.90
5172;DHT22;2605;49.770;9.868;2022-07-23T13:48:25;27.10;99.90
5172;DHT22;2605;49.770;9.868;2022-07-23T13:50:51;26.90;99.90
5172;DHT22;2605;49.770;9.868;2022-07-23T13:53:19;27.00;99.90
5172;DHT22;2605;49.770;9.868;2022-07-23T13:55:47;27.00;99.90
5172;DHT22;2605;49.770;9.868;2022-07-23T13:58:13;27.00;99.90
5172;DHT22;2605;49.770;9.868;2022-07-23T14:00:42;27.00;99.90
5172;DHT22;2605;49.770;9.868;2022-07-23T14:03:08;26.70;99.90
5172;DHT22;2605;49.770;9.868;2022-07-23T14:05:34;27.00;99.90
5172;DHT22;2605;49.770;9.868;2022-07-23T14:08:00;28.00;99.90
5172;DHT22;2605;49.770;9.868;2022-07-23T14:10:25;28.00;99.90
5172;DHT22;2605;49.770;9.868;2022-07-23T14:12:52;27.80;99.90
5172;DHT22;2605;49.770;9.868;2022-07-23T14:15:18;27.30;99.90
5172;DHT22;2605;49.770;9.868;2022-07-23T14:17:45;27.60;99.90
5172;DHT22;2605;49.770;9.868;2022-07-23T14:20:12;29.00;99.90
5172;DHT22;2605;49.770;9.868;2022-07-23T14:22:38;30.10;99.90
5172;DHT22;2605;49.770;9.868;2022-07-23T14:25:05;30.00;99.90
5172;DHT22;2605;49.770;9.868;2022-07-23T14:27:32;30.40;99.90
5172;DHT22;2605;49.770;9.868;2022-07-23T14:29:58;30.80;99.90
5172;DHT22;2605;49.770;9.868;2022-07-23T14:32:24;31.00;99.90
5172;DHT22;2605;49.770;9.868;2022-07-23T14:34:50;32.40;99.90
5172;DHT22;2605;49.770;9.868;2022-07-23T14:37:15;32.40;99.90
5172;DHT22;2605;49.770;9.868;2022-07-23T14:39:42;32.90;99.90
5172;DHT22;2605;49.770;9.868;2022-07-23T14:42:08;33.10;99.90
5172;DHT22;2605;49.770;9.868;2022-07-23T14:44:35;34.60;96.10
5172;DHT22;2605;49.770;9.868;2022-07-23T14:47:02;35.50;90.50
5172;DHT22;2605;49.770;9.868;2022-07-23T14:49:30;35.50;85.30
5172;DHT22;2605;49.770;9.868;2022-07-23T14:51:55;35.40;87.70
5172;DHT22;2605;49.770;9.868;2022-07-23T14:54:21;35.50;87.00
5172;DHT22;2605;49.770;9.868;2022-07-23T14:56:47;35.10;82.50
5172;DHT22;2605;49.770;9.868;2022-07-23T14:59:12;34.60;82.60
5172;DHT22;2605;49.770;9.868;2022-07-23T15:01:39;34.40;83.30
5172;DHT22;2605;49.770;9.868;2022-07-23T15:04:05;34.30;85.60
5172;DHT22;2605;49.770;9.868;2022-07-23T15:06:32;34.20;85.90
5172;DHT22;2605;49.770;9.868;2022-07-23T15:08:57;34.40;85.60
5172;DHT22;2605;49.770;9.868;2022-07-23T15:11:23;35.30;82.70
5172;DHT22;2605;49.770;9.868;2022-07-23T15:13:49;33.00;87.40
5172;DHT22;2605;49.770;9.868;2022-07-23T15:16:14;32.90;90.00
5172;DHT22;2605;49.770;9.868;2022-07-23T15:18:40;34.60;85.80
5172;DHT22;2605;49.770;9.868;2022-07-23T15:21:06;34.00;83.00
5172;DHT22;2605;49.770;9.868;2022-07-23T15:23:31;34.30;82.50
5172;DHT22;2605;49.770;9.868;2022-07-23T15:25:57;35.20;80.20
5172;DHT22;2605;49.770;9.868;2022-07-23T15:28:23;35.50;76.60
5172;DHT22;2605;49.770;9.868;2022-07-23T15:30:49;35.70;75.00
5172;DHT22;2605;49.770;9.868;2022-07-23T15:33:16;36.10;73.10
5172;DHT22;2605;49.770;9.868;2022-07-23T15:35:42;35.10;74.50
5172;DHT22;2605;49.770;9.868;2022-07-23T15:38:07;35.50;72.30
5172;DHT22;2605;49.770;9.868;2022-07-23T15:40:33;34.90;71.00
5172;DHT22;2605;49.770;9.868;2022-07-23T15:42:58;34.40;73.10
5172;DHT22;2605;49.770;9.868;2022-07-23T15:45:24;34.30;73.10
5172;DHT22;2605;49.770;9.868;2022-07-23T15:47:50;34.40;75.20
5172;DHT22;2605;49.770;9.868;2022-07-23T15:50:15;33.70;75.90
5172;DHT22;2605;49.770;9.868;2022-07-23T15:52:41;33.90;74.80
5172;DHT22;2605;49.770;9.868;2022-07-23T15:55:08;33.70;76.70
5172;DHT22;2605;49.770;9.868;2022-07-23T15:57:34;34.20;74.30
5172;DHT22;2605;49.770;9.868;2022-07-23T16:00:00;34.60;71.20
5172;DHT22;2605;49.770;9.868;2022-07-23T16:02:26;33.30;67.40
5172;DHT22;2605;49.770;9.868;2022-07-23T16:04:51;31.40;75.60
5172;DHT22;2605;49.770;9.868;2022-07-23T16:07:19;32.40;75.70
5172;DHT22;2605;49.770;9.868;2022-07-23T16:09:44;33.40;72.80
5172;DHT22;2605;49.770;9.868;2022-07-23T16:12:10;34.00;71.10
5172;DHT22;2605;49.770;9.868;2022-07-23T16:14:36;33.80;71.30
5172;DHT22;2605;49.770;9.868;2022-07-23T16:17:02;33.50;72.10
5172;DHT22;2605;49.770;9.868;2022-07-23T16:19:27;33.50;73.50
5172;DHT22;2605;49.770;9.868;2022-07-23T16:21:53;33.30;73.00
5172;DHT22;2605;49.770;9.868;2022-07-23T16:24:19;34.40;70.60
5172;DHT22;2605;49.770;9.868;2022-07-23T16:26:44;34.50;66.10
5172;DHT22;2605;49.770;9.868;2022-07-23T16:29:10;34.30;67.20
5172;DHT22;2605;49.770;9.868;2022-07-23T16:31:36;33.30;69.40
5172;DHT22;2605;49.770;9.868;2022-07-23T16:34:02;33.70;69.70
5172;DHT22;2605;49.770;9.868;2022-07-23T16:36:27;34.20;69.00
5172;DHT22;2605;49.770;9.868;2022-07-23T16:38:53;34.90;67.60
5172;DHT22;2605;49.770;9.868;2022-07-23T16:41:19;34.80;63.90
5172;DHT22;2605;49.770;9.868;2022-07-23T16:43:44;34.10;65.40
5172;DHT22;2605;49.770;9.868;2022-07-23T16:46:10;32.90;69.50
5172;DHT22;2605;49.770;9.868;2022-07-23T16:48:36;32.70;71.40
5172;DHT22;2605;49.770;9.868;2022-07-23T16:51:03;32.40;72.00
5172;DHT22;2605;49.770;9.868;2022-07-23T16:53:29;32.10;74.30
5172;DHT22;2605;49.770;9.868;2022-07-23T16:55:54;32.60;71.10
5172;DHT22;2605;49.770;9.868;2022-07-23T16:58:20;32.90;70.30
5172;DHT22;2605;49.770;9.868;2022-07-23T17:00:45;33.40;66.20